createdAt,value
2023-05-23T00:01:08.501Z,26.48
2023-05-23T00:03:11.042Z,26.51
2023-05-23T00:05:12.631Z,26.52
2023-05-23T00:07:14.155Z,26.55
2023-05-23T00:09:16.371Z,26.45
2023-05-23T00:11:19.429Z,26.55
2023-05-23T00:13:21.136Z,26.56
2023-05-23T00:15:22.633Z,26.57
2023-05-23T00:17:26.391Z,26.56
2023-05-23T00:19:28.056Z,26.56
2023-05-23T00:21:30.657Z,26.58
2023-05-23T00:23:33.934Z,26.56
2023-05-23T00:25:36.095Z,26.58
2023-05-23T00:27:37.704Z,26.59
2023-05-23T00:29:39.268Z,26.59
2023-05-23T00:31:40.797Z,26.61
2023-05-23T00:33:42.339Z,26.62
2023-05-23T00:35:43.943Z,26.63
2023-05-23T00:37:45.512Z,26.63
2023-05-23T00:39:47.104Z,26.64
2023-05-23T00:41:51.406Z,26.65
2023-05-23T00:43:54.206Z,26.64
2023-05-23T00:45:55.816Z,26.65
2023-05-23T00:47:59.310Z,26.65
2023-05-23T00:50:00.940Z,26.65
2023-05-23T00:52:03.609Z,26.64
2023-05-23T00:54:05.810Z,26.65
2023-05-23T00:56:07.515Z,26.66
2023-05-23T00:58:09.170Z,26.64
2023-05-23T01:00:14.191Z,26.65
2023-05-23T01:02:16.017Z,26.67
2023-05-23T01:04:17.587Z,26.68
2023-05-23T01:06:19.957Z,26.69
2023-05-23T01:08:21.890Z,26.69
2023-05-23T01:10:25.815Z,26.70
2023-05-23T01:12:37.804Z,26.69
2023-05-23T01:14:46.438Z,26.69
2023-05-23T01:16:50.710Z,26.69
2023-05-23T01:18:59.279Z,26.68
2023-05-23T01:21:07.153Z,26.70
2023-05-23T01:23:28.914Z,26.68
2023-05-23T01:25:47.298Z,26.68
2023-05-23T01:27:51.296Z,26.70
2023-05-23T01:29:56.608Z,26.72
2023-05-23T01:31:58.926Z,26.73
2023-05-23T01:34:01.051Z,26.73
2023-05-23T01:36:05.349Z,26.73
2023-05-23T01:38:06.890Z,26.74
2023-05-23T01:40:09.330Z,26.75
2023-05-23T01:42:10.982Z,26.74
2023-05-23T01:44:12.874Z,26.74
2023-05-23T01:46:15.866Z,26.75
2023-05-23T01:48:18.282Z,26.73
2023-05-23T01:50:20.018Z,26.74
2023-05-23T01:52:22.036Z,26.73
2023-05-23T01:54:24.047Z,26.73
2023-05-23T01:56:27.212Z,26.74
2023-05-23T01:58:29.205Z,26.75
2023-05-23T02:00:30.695Z,26.75
2023-05-23T02:02:33.042Z,26.76
2023-05-23T02:04:34.764Z,26.77
2023-05-23T02:06:36.590Z,26.77
2023-05-23T02:08:38.248Z,26.78
2023-05-23T02:10:39.945Z,26.78
2023-05-23T02:12:41.788Z,26.78
2023-05-23T02:14:43.267Z,26.78
2023-05-23T02:16:45.864Z,26.78
2023-05-23T02:18:47.502Z,26.78
2023-05-23T02:20:48.940Z,26.77
2023-05-23T02:22:50.612Z,26.77
2023-05-23T02:24:52.261Z,26.77
2023-05-23T02:26:53.967Z,26.77
2023-05-23T02:28:55.490Z,26.75
2023-05-23T02:30:57.194Z,26.78
2023-05-23T02:32:58.916Z,26.79
2023-05-23T02:35:00.581Z,26.80
2023-05-23T02:37:02.078Z,26.80
2023-05-23T02:39:04.065Z,26.79
2023-05-23T02:41:05.542Z,26.80
2023-05-23T02:43:07.035Z,26.80
2023-05-23T02:45:08.828Z,26.79
2023-05-23T02:47:10.850Z,26.78
2023-05-23T02:49:12.372Z,26.80
2023-05-23T02:51:13.981Z,26.79
2023-05-23T02:53:15.631Z,26.79
2023-05-23T02:55:17.273Z,26.79
2023-05-23T02:57:18.847Z,26.78
2023-05-23T02:59:22.072Z,26.81
2023-05-23T03:01:23.594Z,26.81
2023-05-23T03:03:25.192Z,26.81
2023-05-23T03:05:26.663Z,26.81
2023-05-23T03:07:29.002Z,26.81
2023-05-23T03:09:31.087Z,26.82
2023-05-23T03:11:32.530Z,26.81
2023-05-23T03:13:34.463Z,26.82
2023-05-23T03:15:35.991Z,26.81
2023-05-23T03:17:37.527Z,26.81
2023-05-23T03:19:38.978Z,26.81
2023-05-23T03:21:40.881Z,26.81
2023-05-23T03:23:42.649Z,26.81
2023-05-23T03:25:44.106Z,26.81
2023-05-23T03:27:45.591Z,26.83
2023-05-23T03:29:48.260Z,26.84
2023-05-23T03:31:49.888Z,26.83
2023-05-23T03:33:51.394Z,26.84
2023-05-23T03:35:52.983Z,26.85
2023-05-23T03:37:54.457Z,26.84
2023-05-23T03:39:56.052Z,26.84
2023-05-23T03:41:57.552Z,26.82
2023-05-23T03:43:59.185Z,26.82
2023-05-23T03:46:00.732Z,26.82
2023-05-23T03:48:02.697Z,26.82
2023-05-23T03:50:04.359Z,26.81
2023-05-23T03:52:06.063Z,26.81
2023-05-23T03:54:07.581Z,26.82
2023-05-23T03:56:09.092Z,26.82
2023-05-23T03:58:10.670Z,26.84
2023-05-23T04:00:12.664Z,26.85
2023-05-23T04:02:14.237Z,26.84
2023-05-23T04:04:17.260Z,26.84
2023-05-23T04:06:20.500Z,26.84
2023-05-23T04:08:22.145Z,26.83
2023-05-23T04:10:23.698Z,26.83
2023-05-23T04:12:25.513Z,26.82
2023-05-23T04:14:27.531Z,26.81
2023-05-23T04:16:32.991Z,26.80
2023-05-23T04:18:35.891Z,26.81
2023-05-23T04:20:37.359Z,26.81
2023-05-23T04:22:38.898Z,26.79
2023-05-23T04:24:40.830Z,26.80
2023-05-23T04:26:42.910Z,26.81
2023-05-23T04:28:46.310Z,26.81
2023-05-23T04:30:49.560Z,26.83
2023-05-23T04:32:51.055Z,26.82
2023-05-23T04:34:52.773Z,26.81
2023-05-23T04:36:54.747Z,26.81
2023-05-23T04:38:56.324Z,26.83
2023-05-23T04:40:58.167Z,26.81
2023-05-23T04:42:59.880Z,26.81
2023-05-23T04:45:02.380Z,26.80
2023-05-23T04:47:04.074Z,26.80
2023-05-23T04:49:05.654Z,26.80
2023-05-23T04:51:08.556Z,26.80
2023-05-23T04:53:10.266Z,26.79
2023-05-23T04:55:11.947Z,26.81
2023-05-23T04:57:13.422Z,26.81
2023-05-23T04:59:14.914Z,26.82
2023-05-23T05:01:16.865Z,26.81
2023-05-23T05:03:18.630Z,26.81
2023-05-23T05:05:20.357Z,26.81
2023-05-23T05:07:21.857Z,26.81
2023-05-23T05:09:23.536Z,26.80
2023-05-23T05:11:26.764Z,26.80
2023-05-23T05:13:28.323Z,26.80
2023-05-23T05:15:29.887Z,26.79
2023-05-23T05:17:36.916Z,26.78
2023-05-23T05:19:38.581Z,26.79
2023-05-23T05:21:40.131Z,26.80
2023-05-23T05:23:41.871Z,26.80
2023-05-23T05:25:43.377Z,26.80
2023-05-23T05:27:45.025Z,26.81
2023-05-23T05:29:48.131Z,26.81
2023-05-23T05:31:49.671Z,26.81
2023-05-23T05:33:51.132Z,26.80
2023-05-23T05:35:52.642Z,26.81
2023-05-23T05:37:54.142Z,26.81
2023-05-23T05:39:55.955Z,26.79
2023-05-23T05:41:57.522Z,26.78
2023-05-23T05:43:59.163Z,26.79
2023-05-23T05:46:00.814Z,26.78
2023-05-23T05:48:02.708Z,26.77
2023-05-23T05:50:09.316Z,26.78
2023-05-23T05:52:10.858Z,26.78
2023-05-23T05:54:12.596Z,26.78
2023-05-23T05:56:14.217Z,26.78
2023-05-23T05:58:15.677Z,26.80
2023-05-23T06:00:18.989Z,26.79
2023-05-23T06:02:20.934Z,26.79
2023-05-23T06:04:22.556Z,26.78
2023-05-23T06:06:24.078Z,26.78
2023-05-23T06:08:25.524Z,26.77
2023-05-23T06:10:27.069Z,26.76
2023-05-23T06:12:28.574Z,26.77
2023-05-23T06:14:30.081Z,26.77
2023-05-23T06:16:32.185Z,26.76
2023-05-23T06:18:33.775Z,26.75
2023-05-23T06:20:35.361Z,26.75
2023-05-23T06:22:37.063Z,26.77
2023-05-23T06:24:38.540Z,26.77
2023-05-23T06:26:40.154Z,26.77
2023-05-23T06:28:41.634Z,26.77
2023-05-23T06:30:43.385Z,26.78
2023-05-23T06:32:45.123Z,26.78
2023-05-23T06:34:46.576Z,26.78
2023-05-23T06:36:48.556Z,26.77
2023-05-23T06:38:50.029Z,26.77
2023-05-23T06:40:51.771Z,26.76
2023-05-23T06:42:53.266Z,26.76
2023-05-23T06:44:54.806Z,26.75
2023-05-23T06:46:57.720Z,26.76
2023-05-23T06:49:13.897Z,26.77
2023-05-23T06:51:16.487Z,26.76
2023-05-23T06:53:19.369Z,26.76
2023-05-23T06:55:21.115Z,26.77
2023-05-23T06:57:22.693Z,26.77
2023-05-23T06:59:24.185Z,26.76
2023-05-23T07:01:26.697Z,26.77
2023-05-23T07:03:28.350Z,26.77
2023-05-23T07:05:29.977Z,26.76
2023-05-23T07:07:31.532Z,26.76
2023-05-23T07:09:33.074Z,26.76
2023-05-23T07:11:35.545Z,26.75
2023-05-23T07:13:37.002Z,26.75
2023-05-23T07:15:38.549Z,26.75
2023-05-23T07:17:40.149Z,26.76
2023-05-23T07:19:41.827Z,26.76
2023-05-23T07:21:43.440Z,26.75
2023-05-23T07:23:44.910Z,26.74
2023-05-23T07:26:01.080Z,26.71
2023-05-23T07:28:03.869Z,26.68
2023-05-23T07:30:06.793Z,26.64
2023-05-23T07:32:08.452Z,26.61
2023-05-23T07:34:09.996Z,26.59
2023-05-23T07:36:11.568Z,26.57
2023-05-23T07:38:13.156Z,26.54
2023-05-23T07:40:14.658Z,26.51
2023-05-23T07:42:16.163Z,26.46
2023-05-23T07:44:19.869Z,26.44
2023-05-23T07:46:23.159Z,26.43
2023-05-23T07:48:27.052Z,26.42
2023-05-23T07:50:28.481Z,26.31
2023-05-23T07:52:31.226Z,26.41
2023-05-23T07:54:32.773Z,26.38
2023-05-23T07:56:34.386Z,26.37
2023-05-23T07:58:36.137Z,26.33
2023-05-23T08:00:39.061Z,26.32
2023-05-23T08:02:40.893Z,26.31
2023-05-23T08:04:42.541Z,26.29
2023-05-23T08:07:00.947Z,26.28
2023-05-23T08:09:06.692Z,26.25
2023-05-23T08:11:08.361Z,26.21
2023-05-23T08:13:10.006Z,26.16
2023-05-23T08:15:11.959Z,26.13
2023-05-23T08:17:13.594Z,26.11
2023-05-23T08:19:15.551Z,26.06
2023-05-23T08:21:17.124Z,25.93
2023-05-23T08:23:18.859Z,25.81
2023-05-23T08:25:20.591Z,25.71
2023-05-23T08:27:22.192Z,25.63
2023-05-23T08:29:23.846Z,25.53
2023-05-23T08:31:27.488Z,25.45
2023-05-23T08:33:29.113Z,25.38
2023-05-23T08:35:35.124Z,25.32
2023-05-23T08:37:36.696Z,25.22
2023-05-23T08:39:38.476Z,25.17
2023-05-23T08:41:40.186Z,25.12
2023-05-23T08:43:41.686Z,25.07
2023-05-23T08:45:43.531Z,25.02
2023-05-23T08:47:45.870Z,24.94
2023-05-23T08:49:47.724Z,24.86
2023-05-23T08:51:52.094Z,24.77
2023-05-23T08:53:54.069Z,24.72
2023-05-23T08:55:58.728Z,24.62
2023-05-23T08:58:03.745Z,24.56
2023-05-23T09:00:14.850Z,24.51
2023-05-23T09:02:16.795Z,24.48
2023-05-23T09:04:18.383Z,24.45
2023-05-23T09:06:21.405Z,24.36
2023-05-23T09:08:24.584Z,24.31
2023-05-23T09:10:29.894Z,24.30
2023-05-23T09:12:33.495Z,24.31
2023-05-23T09:14:36.904Z,24.37
2023-05-23T09:16:38.537Z,24.42
2023-05-23T09:18:41.486Z,24.45
2023-05-23T09:20:43.967Z,24.42
2023-05-23T09:22:48.760Z,24.43
2023-05-23T09:24:54.953Z,24.39
2023-05-23T09:26:56.609Z,24.37
2023-05-23T09:28:59.360Z,24.38
2023-05-23T09:31:05.048Z,24.37
2023-05-23T09:33:06.648Z,24.36
2023-05-23T09:35:12.214Z,24.38
2023-05-23T09:37:19.142Z,24.39
2023-05-23T09:39:20.885Z,24.39
2023-05-23T09:41:23.230Z,24.40
2023-05-23T09:43:24.708Z,24.37
2023-05-23T09:45:29.550Z,24.40
2023-05-23T09:47:31.214Z,24.39
2023-05-23T09:49:32.831Z,24.39
2023-05-23T09:51:34.354Z,24.37
2023-05-23T09:53:35.988Z,24.35
2023-05-23T09:55:37.674Z,24.34
2023-05-23T09:57:43.031Z,24.34
2023-05-23T09:59:51.800Z,24.35
2023-05-23T10:01:55.487Z,24.37
2023-05-23T10:04:00.188Z,24.33
2023-05-23T10:06:07.367Z,24.36
2023-05-23T10:08:12.846Z,24.37
2023-05-23T10:10:14.432Z,24.36
2023-05-23T10:12:16.090Z,24.38
2023-05-23T10:14:17.691Z,24.39
2023-05-23T10:16:21.445Z,24.40
2023-05-23T10:18:26.386Z,24.39
2023-05-23T10:20:31.884Z,24.38
2023-05-23T10:22:33.815Z,24.37
2023-05-23T10:24:36.348Z,24.36
2023-05-23T10:26:37.851Z,24.33
2023-05-23T10:28:40.746Z,24.27
2023-05-23T10:30:43.233Z,24.22
2023-05-23T10:32:46.335Z,24.01
2023-05-23T10:34:51.041Z,23.97
2023-05-23T10:37:03.686Z,23.92
2023-05-23T10:39:10.050Z,23.91
2023-05-23T10:41:31.875Z,23.91
2023-05-23T10:43:33.414Z,23.92
2023-05-23T10:45:44.374Z,23.93
2023-05-23T10:47:49.650Z,23.95
2023-05-23T10:49:55.276Z,23.97
2023-05-23T10:51:56.793Z,23.98
2023-05-23T10:53:58.443Z,24.01
2023-05-23T10:55:59.924Z,24.04
2023-05-23T10:58:09.535Z,24.05
2023-05-23T11:00:24.898Z,24.04
2023-05-23T11:02:27.753Z,24.04
2023-05-23T11:04:29.614Z,24.04
2023-05-23T11:06:43.371Z,24.01
2023-05-23T11:08:48.841Z,24.02
2023-05-23T11:10:54.408Z,24.04
2023-05-23T11:13:05.767Z,24.04
2023-05-23T11:15:22.535Z,24.06
2023-05-23T11:17:31.978Z,24.09
2023-05-23T11:19:33.719Z,24.11
2023-05-23T11:21:35.652Z,24.12
2023-05-23T11:23:41.850Z,24.16
2023-05-23T11:25:43.450Z,24.16
2023-05-23T11:27:47.329Z,24.20
2023-05-23T11:30:21.200Z,24.22
2023-05-23T11:32:23.429Z,24.24
2023-05-23T11:34:27.833Z,24.27
2023-05-23T11:36:31.528Z,24.27
2023-05-23T11:38:33.816Z,24.24
2023-05-23T11:40:39.479Z,24.22
2023-05-23T11:42:44.170Z,24.22
2023-05-23T11:44:48.713Z,24.20
2023-05-23T11:47:19.611Z,24.17
2023-05-23T11:49:21.121Z,24.17
2023-05-23T11:51:22.642Z,24.12
2023-05-23T11:53:27.247Z,24.03
2023-05-23T11:55:28.757Z,23.98
2023-05-23T11:57:30.518Z,23.96
2023-05-23T11:59:32.121Z,23.91
2023-05-23T12:01:36.936Z,23.74
2023-05-23T12:03:48.531Z,23.80
2023-05-23T12:05:50.187Z,23.78
2023-05-23T12:07:51.794Z,23.72
2023-05-23T12:09:55.714Z,23.64
2023-05-23T12:11:57.620Z,23.59
2023-05-23T12:14:01.861Z,23.61
2023-05-23T12:16:04.540Z,23.59
2023-05-23T12:18:08.609Z,23.57
2023-05-23T12:20:11.655Z,23.56
2023-05-23T12:22:13.254Z,23.53
2023-05-23T12:24:15.128Z,23.45
2023-05-23T12:26:17.091Z,23.39
2023-05-23T12:28:19.266Z,23.41
2023-05-23T12:30:20.826Z,23.44
2023-05-23T12:32:24.700Z,23.49
2023-05-23T12:34:26.427Z,23.53
2023-05-23T12:36:32.246Z,23.55
2023-05-23T12:38:38.061Z,23.54
2023-05-23T12:40:39.677Z,23.57
2023-05-23T12:42:50.782Z,23.59
2023-05-23T12:44:53.710Z,23.60
2023-05-23T12:46:55.393Z,23.29
2023-05-23T12:48:57.213Z,23.27
2023-05-23T12:50:58.751Z,23.38
2023-05-23T12:53:00.515Z,23.44
2023-05-23T12:55:02.379Z,23.51
2023-05-23T12:57:03.908Z,23.54
2023-05-23T12:59:05.505Z,23.56
2023-05-23T13:01:07.003Z,23.59
2023-05-23T13:03:08.910Z,23.61
2023-05-23T13:05:10.460Z,23.67
2023-05-23T13:07:12.293Z,23.70
2023-05-23T13:09:13.842Z,23.70
2023-05-23T13:11:15.491Z,23.71
2023-05-23T13:13:17.018Z,23.73
2023-05-23T13:15:19.177Z,23.77
2023-05-23T13:17:24.006Z,23.82
2023-05-23T13:19:25.809Z,23.86
2023-05-23T13:21:27.737Z,23.89
2023-05-23T13:23:29.663Z,23.69
2023-05-23T13:25:31.635Z,23.47
2023-05-23T13:27:33.193Z,23.43
2023-05-23T13:29:34.954Z,23.53
2023-05-23T13:31:36.583Z,23.59
2023-05-23T13:33:38.347Z,23.65
2023-05-23T13:35:40.471Z,23.69
2023-05-23T13:37:42.419Z,23.68
2023-05-23T13:39:43.926Z,23.68
2023-05-23T13:41:45.638Z,23.67
2023-05-23T13:43:47.186Z,23.62
2023-05-23T13:45:51.368Z,23.58
2023-05-23T13:47:53.011Z,23.61
2023-05-23T13:49:54.555Z,23.56
2023-05-23T13:51:56.194Z,23.53
2023-05-23T13:53:57.684Z,23.51
2023-05-23T13:55:59.387Z,23.52
2023-05-23T13:58:00.997Z,23.50
2023-05-23T14:00:03.690Z,23.51
2023-05-23T14:02:05.889Z,23.50
2023-05-23T14:04:07.520Z,23.47
2023-05-23T14:06:09.227Z,23.47
2023-05-23T14:08:11.959Z,23.45
2023-05-23T14:10:14.418Z,23.47
2023-05-23T14:12:15.889Z,23.41
2023-05-23T14:14:17.459Z,23.25
2023-05-23T14:16:19.031Z,23.25
2023-05-23T14:18:20.689Z,23.28
2023-05-23T14:20:22.560Z,23.36
2023-05-23T14:22:24.080Z,23.35
2023-05-23T14:24:25.679Z,23.36
2023-05-23T14:26:27.494Z,23.42
2023-05-23T14:28:29.075Z,23.47
2023-05-23T14:30:30.702Z,23.52
2023-05-23T14:32:38.337Z,23.58
2023-05-23T14:34:39.874Z,23.63
2023-05-23T14:36:41.411Z,23.68
2023-05-23T14:38:45.498Z,23.72
2023-05-23T14:40:48.846Z,23.76
2023-05-23T14:42:50.517Z,23.80
2023-05-23T14:44:52.715Z,23.81
2023-05-23T14:46:54.281Z,23.84
2023-05-23T14:48:55.926Z,23.86
2023-05-23T14:51:01.530Z,23.84
2023-05-23T14:53:03.031Z,23.84
2023-05-23T14:55:04.755Z,23.80
2023-05-23T14:57:06.393Z,23.69
2023-05-23T14:59:08.530Z,23.69
2023-05-23T15:01:10.034Z,23.70
2023-05-23T15:03:11.695Z,23.73
2023-05-23T15:05:13.997Z,23.70
2023-05-23T15:07:18.155Z,23.69
2023-05-23T15:09:19.664Z,23.70
2023-05-23T15:11:21.561Z,23.74
2023-05-23T15:13:23.064Z,23.75
2023-05-23T15:15:25.438Z,23.74
2023-05-23T15:17:27.195Z,23.62
2023-05-23T15:19:29.033Z,23.63
2023-05-23T15:21:30.613Z,23.68
2023-05-23T15:23:32.088Z,23.68
2023-05-23T15:25:47.140Z,23.59
2023-05-23T15:27:49.914Z,23.61
2023-05-23T15:29:51.546Z,23.61
2023-05-23T15:31:53.722Z,23.66
2023-05-23T15:33:55.465Z,23.70
2023-05-23T15:35:59.009Z,23.74
2023-05-23T15:38:00.522Z,23.73
2023-05-23T15:40:02.566Z,23.77
2023-05-23T15:42:04.627Z,23.74
2023-05-23T15:44:06.275Z,23.74
2023-05-23T15:46:07.982Z,23.67
2023-05-23T15:48:09.724Z,23.66
2023-05-23T15:50:12.933Z,23.67
2023-05-23T15:52:15.885Z,23.69
2023-05-23T15:54:17.591Z,23.70
2023-05-23T15:56:19.337Z,23.73
2023-05-23T15:58:20.848Z,23.71
2023-05-23T16:00:22.900Z,23.71
2023-05-23T16:02:24.489Z,23.69
2023-05-23T16:04:26.005Z,23.65
2023-05-23T16:06:28.255Z,23.66
2023-05-23T16:08:29.746Z,23.68
2023-05-23T16:10:31.324Z,23.70
2023-05-23T16:12:32.816Z,23.68
2023-05-23T16:14:34.309Z,23.66
2023-05-23T16:16:35.976Z,23.66
2023-05-23T16:18:37.577Z,23.63
2023-05-23T16:20:39.283Z,23.65
2023-05-23T16:22:41.198Z,23.69
2023-05-23T16:24:42.730Z,23.70
2023-05-23T16:26:44.408Z,23.75
2023-05-23T16:28:46.025Z,23.77
2023-05-23T16:30:47.905Z,23.79
2023-05-23T16:32:49.358Z,23.78
2023-05-23T16:34:54.499Z,23.81
2023-05-23T16:36:56.496Z,23.83
2023-05-23T16:38:58.058Z,23.85
2023-05-23T16:40:59.592Z,23.86
2023-05-23T16:43:02.524Z,23.88
2023-05-23T16:45:04.512Z,23.88
2023-05-23T16:47:06.038Z,23.83
2023-05-23T16:49:07.619Z,23.77
2023-05-23T16:51:09.160Z,23.70
2023-05-23T16:53:10.894Z,23.65
2023-05-23T16:55:12.589Z,23.52
2023-05-23T16:57:14.169Z,23.55
2023-05-23T16:59:15.744Z,23.59
2023-05-23T17:01:17.349Z,23.64
2023-05-23T17:03:20.391Z,23.66
2023-05-23T17:05:22.132Z,23.67
2023-05-23T17:07:23.767Z,23.67
2023-05-23T17:09:25.245Z,23.68
2023-05-23T17:11:27.128Z,23.65
2023-05-23T17:13:28.767Z,23.61
2023-05-23T17:15:30.561Z,23.59
2023-05-23T17:17:32.062Z,23.51
2023-05-23T17:19:34.690Z,23.43
2023-05-23T17:21:36.534Z,23.56
2023-05-23T17:23:38.167Z,23.58
2023-05-23T17:25:39.997Z,23.57
2023-05-23T17:27:41.906Z,23.62
2023-05-23T17:29:43.405Z,23.65
2023-05-23T17:31:45.052Z,23.69
2023-05-23T17:33:46.536Z,23.76
2023-05-23T17:35:48.181Z,23.78
2023-05-23T17:37:49.735Z,23.79
2023-05-23T17:39:51.418Z,23.81
2023-05-23T17:41:53.323Z,23.84
2023-05-23T17:43:55.431Z,23.86
2023-05-23T17:45:58.141Z,23.88
2023-05-23T17:48:03.471Z,23.92
2023-05-23T17:50:06.290Z,23.93
2023-05-23T17:52:09.923Z,23.90
2023-05-23T17:54:11.549Z,23.86
2023-05-23T17:56:13.188Z,23.88
2023-05-23T17:58:14.866Z,23.88
2023-05-23T18:00:17.608Z,23.84
2023-05-23T18:02:19.193Z,23.78
2023-05-23T18:04:20.744Z,23.73
2023-05-23T18:06:22.337Z,23.73
2023-05-23T18:08:23.844Z,23.72
2023-05-23T18:10:25.260Z,23.69
2023-05-23T18:12:27.055Z,23.70
2023-05-23T18:14:28.494Z,23.68
2023-05-23T18:16:30.020Z,23.67
2023-05-23T18:18:31.750Z,23.65
2023-05-23T18:20:33.462Z,23.62
2023-05-23T18:22:35.469Z,23.62
2023-05-23T18:24:36.978Z,23.63
2023-05-23T18:26:43.108Z,23.66
2023-05-23T18:28:44.829Z,23.69
2023-05-23T18:30:46.335Z,23.69
2023-05-23T18:32:48.016Z,23.68
2023-05-23T18:34:49.620Z,23.67
2023-05-23T18:36:51.181Z,23.69
2023-05-23T18:38:52.929Z,23.67
2023-05-23T18:40:54.479Z,23.64
2023-05-23T18:42:56.189Z,23.60
2023-05-23T18:44:57.653Z,23.56
2023-05-23T18:46:59.344Z,23.53
2023-05-23T18:49:01.105Z,23.55
2023-05-23T18:51:02.865Z,23.54
2023-05-23T18:53:04.338Z,23.55
2023-05-23T18:55:06.068Z,23.56
2023-05-23T18:57:07.691Z,23.56
2023-05-23T18:59:13.530Z,23.54
2023-05-23T19:01:15.177Z,23.44
2023-05-23T19:03:19.450Z,23.51
2023-05-23T19:05:21.373Z,23.51
2023-05-23T19:07:22.982Z,23.51
2023-05-23T19:09:24.594Z,23.51
2023-05-23T19:11:26.369Z,23.52
2023-05-23T19:13:28.002Z,23.53
2023-05-23T19:15:29.502Z,23.56
2023-05-23T19:17:31.082Z,23.59
2023-05-23T19:19:33.650Z,23.61
2023-05-23T19:21:35.191Z,23.62
2023-05-23T19:23:36.756Z,23.64
2023-05-23T19:25:39.230Z,23.68
2023-05-23T19:27:41.009Z,23.67
2023-05-23T19:29:42.583Z,23.63
2023-05-23T19:31:44.440Z,23.62
2023-05-23T19:33:46.458Z,23.62
2023-05-23T19:35:48.045Z,23.62
2023-05-23T19:37:49.806Z,23.62
2023-05-23T19:39:51.595Z,23.63
2023-05-23T19:41:53.421Z,23.64
2023-05-23T19:43:54.937Z,23.63
2023-05-23T19:45:56.600Z,23.63
2023-05-23T19:47:58.145Z,23.65
2023-05-23T19:49:59.701Z,23.68
2023-05-23T19:52:01.464Z,23.69
2023-05-23T19:54:03.212Z,23.68
2023-05-23T19:56:04.809Z,23.69
2023-05-23T19:58:06.387Z,23.71
2023-05-23T20:00:09.772Z,23.69
2023-05-23T20:02:11.944Z,23.68
2023-05-23T20:04:13.622Z,23.69
2023-05-23T20:06:16.602Z,23.69
2023-05-23T20:08:18.231Z,23.71
2023-05-23T20:10:19.841Z,23.67
2023-05-23T20:12:21.309Z,23.65
2023-05-23T20:14:22.760Z,23.66
2023-05-23T20:16:24.484Z,23.66
2023-05-23T20:18:26.008Z,23.66
2023-05-23T20:20:27.522Z,23.64
2023-05-23T20:22:29.035Z,23.61
2023-05-23T20:24:31.849Z,23.60
2023-05-23T20:26:33.633Z,23.58
2023-05-23T20:28:44.874Z,23.55
2023-05-23T20:30:46.822Z,23.53
2023-05-23T20:32:52.947Z,23.53
2023-05-23T20:34:54.652Z,23.51
2023-05-23T20:36:56.182Z,23.53
2023-05-23T20:38:58.118Z,23.51
2023-05-23T20:41:06.571Z,23.50
2023-05-23T20:43:09.526Z,23.47
2023-05-23T20:45:11.635Z,23.44
2023-05-23T20:47:13.804Z,23.42
2023-05-23T20:49:15.838Z,23.39
2023-05-23T20:51:17.663Z,23.34
2023-05-23T20:53:19.134Z,23.33
2023-05-23T20:55:22.257Z,23.34
2023-05-23T20:57:23.825Z,23.33
2023-05-23T20:59:26.275Z,23.30
2023-05-23T21:01:28.157Z,23.31
2023-05-23T21:03:29.811Z,23.35
2023-05-23T21:05:31.335Z,23.38
2023-05-23T21:07:32.855Z,23.39
2023-05-23T21:09:34.522Z,23.37
2023-05-23T21:11:36.197Z,23.38
2023-05-23T21:13:39.811Z,23.41
2023-05-23T21:15:41.716Z,23.44
2023-05-23T21:17:43.284Z,23.44
2023-05-23T21:19:44.960Z,23.40
2023-05-23T21:21:46.582Z,23.38
2023-05-23T21:23:48.085Z,23.38
2023-05-23T21:25:49.646Z,23.40
2023-05-23T21:27:51.277Z,23.45
2023-05-23T21:29:52.838Z,23.45
2023-05-23T21:31:55.098Z,23.44
2023-05-23T21:33:56.656Z,23.40
2023-05-23T21:36:00.066Z,23.36
2023-05-23T21:38:02.323Z,23.41
2023-05-23T21:40:04.111Z,23.47
2023-05-23T21:42:06.181Z,23.51
2023-05-23T21:44:07.674Z,23.55
2023-05-23T21:46:09.145Z,23.56
2023-05-23T21:48:10.696Z,23.58
2023-05-23T21:50:12.150Z,23.61
2023-05-23T21:52:13.697Z,23.63
2023-05-23T21:54:15.461Z,23.64
2023-05-23T21:56:16.881Z,23.64
2023-05-23T21:58:18.374Z,23.66
2023-05-23T22:00:20.015Z,23.67
2023-05-23T22:02:21.596Z,23.69
2023-05-23T22:04:23.249Z,23.71
2023-05-23T22:06:24.829Z,23.71
2023-05-23T22:08:26.288Z,23.73
2023-05-23T22:10:27.804Z,23.74
2023-05-23T22:12:29.221Z,23.74
2023-05-23T22:14:30.819Z,23.75
2023-05-23T22:16:39.351Z,23.76
2023-05-23T22:18:51.554Z,23.77
2023-05-23T22:20:53.609Z,23.80
2023-05-23T22:22:55.086Z,23.81
2023-05-23T22:24:56.529Z,23.85
2023-05-23T22:26:58.252Z,23.85
2023-05-23T22:28:59.970Z,23.87
2023-05-23T22:31:02.294Z,23.89
2023-05-23T22:33:04.168Z,23.90
2023-05-23T22:35:06.022Z,23.91
2023-05-23T22:37:07.856Z,23.91
2023-05-23T22:39:09.668Z,23.94
2023-05-23T22:41:11.646Z,23.94
2023-05-23T22:43:13.384Z,23.95
2023-05-23T22:45:15.357Z,23.96
2023-05-23T22:47:18.168Z,23.98
2023-05-23T22:49:22.349Z,24.01
2023-05-23T22:51:24.769Z,24.03
2023-05-23T22:53:26.443Z,24.05
2023-05-23T22:55:27.909Z,24.08
2023-05-23T22:57:29.397Z,24.09
2023-05-23T22:59:31.252Z,24.09
2023-05-23T23:01:33.694Z,24.11
2023-05-23T23:03:35.392Z,24.11
2023-05-23T23:05:36.992Z,24.11
2023-05-23T23:07:39.320Z,24.12
2023-05-23T23:09:40.977Z,24.14
2023-05-23T23:11:42.791Z,24.04
2023-05-23T23:13:44.317Z,24.15
2023-05-23T23:15:49.689Z,24.17
2023-05-23T23:17:51.287Z,24.19
2023-05-23T23:19:53.911Z,24.22
2023-05-23T23:21:55.755Z,24.23
2023-05-23T23:23:57.181Z,24.25
2023-05-23T23:25:59.504Z,24.28
2023-05-23T23:28:01.138Z,24.29
2023-05-23T23:30:02.791Z,24.29
2023-05-23T23:32:04.455Z,24.29
2023-05-23T23:34:05.947Z,24.29
2023-05-23T23:36:07.600Z,24.31
2023-05-23T23:38:09.180Z,24.32
2023-05-23T23:40:11.017Z,24.33
2023-05-23T23:42:12.955Z,24.34
2023-05-23T23:44:14.895Z,24.33
2023-05-23T23:46:18.718Z,24.36
2023-05-23T23:48:20.264Z,24.38
2023-05-23T23:50:21.744Z,24.39
2023-05-23T23:52:23.536Z,24.41
2023-05-23T23:54:25.037Z,24.42
2023-05-23T23:56:26.514Z,24.42
2023-05-23T23:58:28.114Z,24.32
